Time;durP1;ratioP1;P1;durP2;ratioP2;P2;SDS_P1;SDS_P2;PMS_P1;PMS_P2;Temp;Humidity;BMP_temperature;BMP_pressure;BME280_temperature;BME280_humidity;BME280_pressure;Samples;Min_cycle;Max_cycle;Signal;HPM_P1;HPM_P2
2023/08/21 00:00:23;;;;;;;3.92;1.65;;;22.00;66.90;;;;;;4993085;28;20190;-56
2023/08/21 00:02:50;;;;;;;5.28;2.10;;;21.90;65.90;;;;;;4993295;28;20214;-55
2023/08/21 00:05:17;;;;;;;3.38;1.80;;;22.00;66.00;;;;;;4992961;28;20194;-57
2023/08/21 00:07:46;;;;;;;2.78;1.80;;;22.00;66.00;;;;;;4993207;28;20217;-56
2023/08/21 00:10:15;;;;;;;4.80;2.30;;;22.00;66.00;;;;;;4992964;28;20273;-55
2023/08/21 00:12:42;;;;;;;2.47;1.60;;;22.00;66.00;;;;;;4992784;28;20241;-56
2023/08/21 00:15:10;;;;;;;3.40;1.70;;;21.90;65.90;;;;;;4993189;28;20213;-56
2023/08/21 00:17:39;;;;;;;2.42;1.67;;;22.00;65.90;;;;;;4993690;28;20226;-56
2023/08/21 00:20:09;;;;;;;2.65;1.90;;;22.00;65.90;;;;;;4996674;28;20201;-55
2023/08/21 00:22:36;;;;;;;4.03;1.77;;;22.00;65.90;;;;;;4996805;28;20217;-56
2023/08/21 00:25:04;;;;;;;2.78;1.65;;;22.00;65.80;;;;;;4996962;28;20194;-55
2023/08/21 00:27:32;;;;;;;4.32;1.63;;;21.90;65.70;;;;;;4996939;28;20229;-55
2023/08/21 00:30:01;;;;;;;4.10;1.70;;;22.00;65.80;;;;;;4997381;28;20194;-52
2023/08/21 00:32:28;;;;;;;2.15;1.50;;;22.00;65.80;;;;;;4996975;28;20221;-56
2023/08/21 00:34:57;;;;;;;2.55;1.52;;;21.90;65.70;;;;;;4996737;28;20287;-54
2023/08/21 00:37:25;;;;;;;5.00;1.65;;;21.90;65.60;;;;;;4996723;28;20316;-55
2023/08/21 00:39:52;;;;;;;8.15;1.80;;;21.90;65.60;;;;;;4996638;28;20198;-55
2023/08/21 00:42:19;;;;;;;5.45;1.73;;;21.90;65.60;;;;;;4996665;28;20309;-57
2023/08/21 00:44:46;;;;;;;4.20;1.77;;;21.90;65.60;;;;;;4996554;28;20281;-55
2023/08/21 00:47:14;;;;;;;3.63;2.00;;;22.00;65.70;;;;;;4996542;28;20222;-55
2023/08/21 00:49:41;;;;;;;3.65;1.77;;;21.90;65.50;;;;;;4996432;28;20221;-57
2023/08/21 00:52:11;;;;;;;4.03;1.85;;;21.90;65.50;;;;;;4996431;28;20221;-55
2023/08/21 00:54:39;;;;;;;6.07;2.22;;;21.90;65.50;;;;;;4996420;28;20194;-55
2023/08/21 00:57:06;;;;;;;2.22;1.50;;;21.90;65.50;;;;;;4996362;28;20335;-54
2023/08/21 00:59:34;;;;;;;4.40;2.05;;;21.90;65.50;;;;;;4995960;28;20696;-54
2023/08/21 01:02:01;;;;;;;3.28;1.58;;;21.90;65.40;;;;;;4996320;28;20296;-55
2023/08/21 01:04:28;;;;;;;3.25;1.40;;;21.90;65.30;;;;;;4996171;28;20190;-57
2023/08/21 01:06:57;;;;;;;3.28;1.80;;;21.90;65.30;;;;;;4996129;28;20311;-57
2023/08/21 01:09:32;;;;;;;4.00;1.85;;;21.90;65.30;;;;;;5014840;28;20281;-54
2023/08/21 01:12:10;;;;;;;3.33;1.73;;;21.90;65.30;;;;;;5015193;28;20240;-56
2023/08/21 01:15:00;;;;;;;2.88;1.33;;;21.90;65.30;;;;;;5015557;28;20189;-56
2023/08/21 01:17:29;;;;;;;5.00;1.80;;;21.90;65.20;;;;;;5015403;28;20217;-56
2023/08/21 01:19:57;;;;;;;4.68;1.67;;;21.90;65.20;;;;;;5015177;28;20285;-55
2023/08/21 01:22:27;;;;;;;3.30;1.60;;;21.90;65.20;;;;;;5015579;28;20267;-52
2023/08/21 01:24:56;;;;;;;1.60;1.40;;;21.90;65.20;;;;;;5015397;28;20220;-52
2023/08/21 01:27:23;;;;;;;3.90;1.60;;;21.90;66.00;;;;;;5015175;28;20666;-55
2023/08/21 01:29:51;;;;;;;2.60;1.75;;;21.80;65.10;;;;;;5014935;28;20272;-54
2023/08/21 01:32:33;;;;;;;2.78;1.50;;;21.90;65.10;;;;;;5015369;28;20221;-56
2023/08/21 01:35:01;;;;;;;2.10;1.67;;;21.80;65.00;;;;;;5015211;28;20217;-55
2023/08/21 01:37:29;;;;;;;4.47;1.63;;;21.90;65.10;;;;;;5015126;28;20227;-55
2023/08/21 01:39:59;;;;;;;1.30;1.13;;;21.90;65.10;;;;;;5015115;28;20200;-55
2023/08/21 01:42:26;;;;;;;5.15;1.67;;;21.90;65.00;;;;;;5015223;28;20221;-57
2023/08/21 01:44:54;;;;;;;2.70;1.55;;;21.90;65.00;;;;;;5014922;28;20196;-55
2023/08/21 01:47:21;;;;;;;1.67;1.20;;;21.80;64.90;;;;;;5015056;28;20303;-54
2023/08/21 01:49:52;;;;;;;2.15;1.20;;;21.80;64.90;;;;;;5014599;28;20289;-55
2023/08/21 01:52:19;;;;;;;2.38;1.20;;;21.90;65.00;;;;;;5014941;28;20217;-55
2023/08/21 01:54:47;;;;;;;2.15;1.50;;;21.80;64.80;;;;;;5014525;28;20197;-57
2023/08/21 01:57:16;;;;;;;2.22;1.50;;;21.80;64.80;;;;;;5014499;28;20718;-57
2023/08/21 01:59:44;;;;;;;2.38;1.48;;;21.80;64.80;;;;;;5014669;28;20224;-56
2023/08/21 02:02:11;;;;;;;1.52;1.33;;;21.90;64.90;;;;;;5014783;28;20217;-54
2023/08/21 02:04:38;;;;;;;1.88;1.20;;;21.80;64.70;;;;;;5014711;28;20196;-55
2023/08/21 02:07:06;;;;;;;2.38;1.20;;;21.80;64.70;;;;;;5014687;28;20212;-56
2023/08/21 02:09:33;;;;;;;2.05;1.20;;;21.80;64.70;;;;;;5014541;28;20233;-55
2023/08/21 02:12:01;;;;;;;2.75;1.42;;;21.80;64.70;;;;;;5014009;28;20320;-55
2023/08/21 02:14:29;;;;;;;2.80;1.30;;;21.80;64.70;;;;;;5014410;28;20228;-54
2023/08/21 02:16:56;;;;;;;2.22;1.30;;;21.80;64.60;;;;;;5014452;28;20225;-55
2023/08/21 02:19:23;;;;;;;1.90;1.20;;;21.80;64.60;;;;;;5014294;28;20236;-56
2023/08/21 02:21:51;;;;;;;2.35;1.10;;;21.80;64.60;;;;;;5014299;28;20214;-51
2023/08/21 02:24:18;;;;;;;1.80;1.50;;;21.80;64.60;;;;;;5014289;28;20190;-57
2023/08/21 02:26:46;;;;;;;2.97;1.60;;;21.80;64.50;;;;;;5013967;28;20232;-53
2023/08/21 02:29:13;;;;;;;3.03;1.63;;;21.80;64.50;;;;;;5014124;28;20197;-57
2023/08/21 02:31:41;;;;;;;3.15;1.50;;;21.80;64.50;;;;;;5014124;28;20220;-54
2023/08/21 02:34:08;;;;;;;3.55;1.50;;;21.80;64.50;;;;;;5014076;28;20189;-58
2023/08/21 02:36:36;;;;;;;2.03;1.48;;;21.80;64.50;;;;;;5014074;28;20649;-54
2023/08/21 02:39:04;;;;;;;3.10;1.35;;;21.80;64.40;;;;;;5013918;28;20260;-56
2023/08/21 02:41:31;;;;;;;1.52;1.20;;;21.80;64.40;;;;;;5013055;28;20217;-55
2023/08/21 02:43:58;;;;;;;2.10;1.50;;;21.80;64.50;;;;;;5013586;28;20190;-55
2023/08/21 02:46:26;;;;;;;2.53;1.40;;;21.80;64.40;;;;;;5013811;28;20300;-54
2023/08/21 02:48:54;;;;;;;3.05;1.63;;;21.80;64.50;;;;;;5013757;28;20202;-57
2023/08/21 02:51:21;;;;;;;1.77;1.25;;;21.70;64.30;;;;;;5013439;28;20217;-54
2023/08/21 02:53:49;;;;;;;4.95;1.50;;;21.80;64.50;;;;;;5013459;28;20276;-55
2023/08/21 02:56:18;;;;;;;2.88;1.40;;;21.80;64.50;;;;;;5013708;28;20267;-54
2023/08/21 02:58:45;;;;;;;2.97;1.50;;;21.80;64.50;;;;;;5013472;28;20221;-55
2023/08/21 03:01:12;;;;;;;2.25;1.30;;;21.80;64.40;;;;;;5013590;28;20221;-54
2023/08/21 03:03:39;;;;;;;3.22;1.58;;;21.80;65.20;;;;;;5013523;28;20240;-55
2023/08/21 03:06:08;;;;;;;2.90;1.60;;;21.80;64.40;;;;;;5013507;28;20224;-57
2023/08/21 03:08:35;;;;;;;3.10;1.60;;;21.80;64.50;;;;;;5013458;28;20208;-57
2023/08/21 03:11:03;;;;;;;3.83;1.55;;;21.80;64.40;;;;;;5013455;28;20276;-56
2023/08/21 03:13:30;;;;;;;3.40;1.58;;;21.80;64.50;;;;;;5012947;28;20319;-56
2023/08/21 03:15:57;;;;;;;2.92;1.40;;;21.80;64.50;;;;;;5013500;28;20197;-55
2023/08/21 03:18:25;;;;;;;2.10;1.35;;;21.80;64.40;;;;;;5013458;28;20232;-58
2023/08/21 03:20:52;;;;;;;3.78;1.42;;;21.70;64.40;;;;;;5013531;28;20255;-53
2023/08/21 03:23:20;;;;;;;2.30;1.30;;;21.80;64.50;;;;;;5012900;28;20189;-56
2023/08/21 03:25:47;;;;;;;3.97;1.55;;;21.80;64.50;;;;;;5013139;28;20200;-56
2023/08/21 03:28:15;;;;;;;3.15;1.42;;;21.70;64.40;;;;;;5013302;28;20252;-55
2023/08/21 03:30:42;;;;;;;3.63;1.40;;;21.80;64.50;;;;;;5013134;28;20193;-56
2023/08/21 03:33:09;;;;;;;3.47;1.60;;;21.80;64.50;;;;;;5013545;28;20217;-55
2023/08/21 03:35:36;;;;;;;2.65;1.63;;;21.80;64.60;;;;;;5013042;28;20228;-55
2023/08/21 03:38:03;;;;;;;5.38;1.52;;;21.80;64.50;;;;;;5013055;28;20300;-56
2023/08/21 03:40:31;;;;;;;2.85;1.70;;;21.70;64.40;;;;;;5012930;28;20200;-55
2023/08/21 03:42:58;;;;;;;3.80;1.67;;;21.80;64.60;;;;;;5013115;28;20216;-56
2023/08/21 03:45:25;;;;;;;3.63;1.40;;;21.80;64.60;;;;;;5012632;28;20289;-52
2023/08/21 03:47:52;;;;;;;4.25;1.70;;;21.80;64.60;;;;;;5012978;28;20308;-54
2023/08/21 03:50:19;;;;;;;4.30;1.73;;;21.80;64.60;;;;;;5012525;28;20635;-55
2023/08/21 03:52:46;;;;;;;3.03;1.52;;;21.80;64.60;;;;;;5012730;28;20228;-54
2023/08/21 03:55:13;;;;;;;4.13;1.60;;;21.80;64.60;;;;;;5012483;28;20275;-55
2023/08/21 03:57:41;;;;;;;5.40;1.58;;;21.80;64.60;;;;;;5012557;28;20237;-55
2023/08/21 04:00:09;;;;;;;2.63;1.58;;;21.80;64.60;;;;;;5012366;28;20303;-57
2023/08/21 04:02:36;;;;;;;4.22;1.60;;;21.80;64.60;;;;;;5012529;28;20723;-54
2023/08/21 04:05:03;;;;;;;4.05;1.88;;;21.80;64.60;;;;;;5012711;28;20275;-55
2023/08/21 04:07:30;;;;;;;5.18;1.60;;;21.80;64.70;;;;;;5012399;28;20312;-55
2023/08/21 04:09:57;;;;;;;3.75;1.80;;;21.80;64.60;;;;;;5012636;28;20271;-55
2023/08/21 04:12:24;;;;;;;2.13;1.50;;;21.80;64.60;;;;;;5012267;28;20237;-55
2023/08/21 04:14:52;;;;;;;6.50;1.55;;;21.80;64.70;;;;;;5012828;28;20221;-54
2023/08/21 04:17:22;;;;;;;4.22;1.50;;;21.80;64.70;;;;;;5012293;28;20223;-55
2023/08/21 04:19:49;;;;;;;2.80;1.80;;;21.70;64.60;;;;;;5012148;28;20695;-55
2023/08/21 04:22:16;;;;;;;2.67;1.65;;;21.80;64.70;;;;;;5012650;28;20710;-56
2023/08/21 04:24:43;;;;;;;3.00;1.48;;;21.80;64.70;;;;;;5012473;28;20196;-55
2023/08/21 04:27:10;;;;;;;5.28;1.60;;;21.80;64.70;;;;;;5012219;28;20213;-56
2023/08/21 04:29:39;;;;;;;6.82;1.90;;;21.80;64.70;;;;;;5012160;28;20284;-54
2023/08/21 04:32:07;;;;;;;4.38;1.70;;;21.80;64.70;;;;;;5012163;28;20592;-55
2023/08/21 04:34:34;;;;;;;4.80;1.70;;;21.80;64.70;;;;;;5012097;28;20198;-55
2023/08/21 04:37:01;;;;;;;3.80;1.38;;;21.80;64.70;;;;;;5012475;28;20229;-55
2023/08/21 04:39:28;;;;;;;6.38;1.85;;;21.80;64.70;;;;;;5011977;28;20308;-55
2023/08/21 04:41:55;;;;;;;5.40;1.45;;;21.80;64.70;;;;;;5012108;28;20217;-55
2023/08/21 04:44:22;;;;;;;3.03;1.52;;;21.70;64.60;;;;;;5012322;28;20194;-55
2023/08/21 04:46:50;;;;;;;2.75;1.52;;;21.80;64.70;;;;;;5012019;28;20710;-54
2023/08/21 04:49:18;;;;;;;4.93;1.55;;;21.80;64.80;;;;;;5012216;28;20203;-55
2023/08/21 04:51:45;;;;;;;2.70;1.55;;;21.80;64.70;;;;;;5012242;28;20225;-55
2023/08/21 04:54:12;;;;;;;4.18;1.70;;;21.80;64.80;;;;;;5012219;28;20198;-56
2023/08/21 04:56:39;;;;;;;5.53;1.70;;;21.80;64.80;;;;;;5011859;28;20724;-55
2023/08/21 04:59:06;;;;;;;5.82;1.70;;;21.80;64.80;;;;;;5012106;28;20224;-54
2023/08/21 05:01:33;;;;;;;3.45;1.42;;;21.80;64.80;;;;;;5011800;28;20221;-57
2023/08/21 05:03:59;;;;;;;4.22;1.58;;;21.80;64.80;;;;;;5013042;28;20186;-55
2023/08/21 05:06:28;;;;;;;6.35;2.00;;;21.80;64.70;;;;;;5016077;28;20251;-55
2023/08/21 05:08:55;;;;;;;5.63;1.70;;;21.80;64.70;;;;;;5015577;28;20200;-55
2023/08/21 05:11:22;;;;;;;4.53;1.60;;;21.70;64.70;;;;;;5015398;28;20252;-55
2023/08/21 05:13:49;;;;;;;3.85;1.50;;;21.80;64.80;;;;;;5015283;28;20276;-53
2023/08/21 05:16:16;;;;;;;4.45;1.75;;;21.80;64.80;;;;;;5015729;28;20197;-55
2023/08/21 05:18:43;;;;;;;4.47;1.75;;;21.80;64.80;;;;;;5015054;28;20670;-55
2023/08/21 05:21:09;;;;;;;3.72;1.55;;;21.80;64.80;;;;;;5015426;28;20220;-57
2023/08/21 05:23:38;;;;;;;3.90;1.75;;;21.80;64.80;;;;;;5015368;28;20273;-56
2023/08/21 05:26:05;;;;;;;4.97;1.65;;;21.80;64.80;;;;;;5015225;28;20237;-56
2023/08/21 05:28:31;;;;;;;3.00;1.70;;;21.80;64.80;;;;;;5015905;28;20280;-55
2023/08/21 05:30:58;;;;;;;2.42;1.50;;;21.80;64.80;;;;;;5015590;28;20197;-56
2023/08/21 05:33:26;;;;;;;6.35;1.85;;;21.80;64.80;;;;;;5015231;28;20272;-55
2023/08/21 05:35:53;;;;;;;2.70;1.35;;;21.80;64.80;;;;;;5014882;28;20197;-55
2023/08/21 05:38:20;;;;;;;3.50;2.10;;;21.80;64.80;;;;;;5015232;28;20221;-56
2023/08/21 05:40:49;;;;;;;3.65;1.42;;;21.70;64.70;;;;;;5015095;28;20217;-54
2023/08/21 05:43:17;;;;;;;3.17;1.63;;;21.80;64.80;;;;;;5015247;28;20395;-56
2023/08/21 05:45:44;;;;;;;2.63;1.60;;;21.80;64.80;;;;;;5014681;28;20196;-55
2023/08/21 05:48:11;;;;;;;5.55;1.75;;;21.80;64.80;;;;;;5014785;28;20702;-55
2023/08/21 05:50:38;;;;;;;2.85;1.40;;;21.70;64.70;;;;;;5014932;28;20387;-56
2023/08/21 05:53:05;;;;;;;3.15;1.50;;;21.80;64.80;;;;;;5014753;28;20762;-56
2023/08/21 05:55:32;;;;;;;2.60;1.50;;;21.70;64.70;;;;;;5015845;28;20197;-56
2023/08/21 05:58:00;;;;;;;2.47;1.50;;;21.70;64.70;;;;;;5014908;28;20224;-54
2023/08/21 06:00:27;;;;;;;3.83;1.48;;;21.70;64.70;;;;;;5014351;28;20660;-58
2023/08/21 06:02:54;;;;;;;4.70;1.65;;;21.80;64.80;;;;;;5014830;28;20213;-54
2023/08/21 06:05:21;;;;;;;2.47;1.42;;;21.80;64.80;;;;;;5014647;28;20600;-55
2023/08/21 06:07:47;;;;;;;4.20;1.70;;;21.80;64.80;;;;;;5014701;28;20217;-54
2023/08/21 06:10:14;;;;;;;2.10;1.45;;;21.80;64.80;;;;;;5014280;28;20661;-54
2023/08/21 06:12:42;;;;;;;4.88;1.45;;;21.70;64.70;;;;;;5014091;28;20283;-56
2023/08/21 06:15:11;;;;;;;5.25;1.55;;;21.70;64.70;;;;;;5014659;28;20608;-57
2023/08/21 06:17:39;;;;;;;11.43;1.90;;;21.70;64.70;;;;;;5014502;28;20654;-55
2023/08/21 06:20:08;;;;;;;2.40;1.40;;;21.80;64.80;;;;;;5013961;28;20631;-54
2023/08/21 06:22:35;;;;;;;2.45;1.45;;;21.70;64.70;;;;;;5014421;28;20217;-56
2023/08/21 06:25:02;;;;;;;6.03;1.60;;;21.70;64.70;;;;;;5014497;28;20192;-57
2023/08/21 06:27:29;;;;;;;4.85;1.70;;;21.70;64.70;;;;;;5014317;28;20291;-53
2023/08/21 06:29:56;;;;;;;4.50;1.60;;;21.80;64.80;;;;;;5014248;28;20221;-56
2023/08/21 06:32:24;;;;;;;3.17;1.33;;;21.70;64.70;;;;;;5014231;28;20300;-57
2023/08/21 06:34:52;;;;;;;3.50;1.42;;;21.70;64.70;;;;;;5014104;28;20272;-55
2023/08/21 06:37:19;;;;;;;3.30;1.42;;;21.70;64.70;;;;;;5013804;28;20702;-57
2023/08/21 06:39:46;;;;;;;3.63;1.45;;;21.70;64.70;;;;;;5013949;28;20221;-55
2023/08/21 06:42:13;;;;;;;5.30;1.40;;;21.70;64.70;;;;;;5014082;28;20235;-56
2023/08/21 06:44:40;;;;;;;10.80;1.90;;;21.70;64.60;;;;;;5013939;28;20240;-55
2023/08/21 06:47:07;;;;;;;8.70;1.55;;;21.70;64.70;;;;;;5013619;28;20221;-57
2023/08/21 06:49:36;;;;;;;3.13;1.90;;;21.70;64.70;;;;;;5013864;28;20194;-55
2023/08/21 06:52:03;;;;;;;3.42;1.50;;;21.70;64.70;;;;;;5013881;28;20261;-54
2023/08/21 06:54:30;;;;;;;4.97;1.60;;;21.70;64.70;;;;;;5013763;28;20189;-54
2023/08/21 06:56:58;;;;;;;6.95;1.30;;;21.70;64.70;;;;;;5013724;28;20225;-56
2023/08/21 06:59:25;;;;;;;2.45;1.48;;;21.70;64.70;;;;;;5013577;28;20217;-55
2023/08/21 07:01:53;;;;;;;3.97;1.75;;;21.70;64.70;;;;;;5011714;28;20229;-62
2023/08/21 07:04:23;;;;;;;3.45;1.40;;;21.80;65.60;;;;;;5011356;28;20207;-64
2023/08/21 07:06:53;;;;;;;3.03;1.33;;;21.80;64.80;;;;;;5011014;28;20267;-61
2023/08/21 07:09:20;;;;;;;4.55;1.50;;;21.80;64.80;;;;;;4980809;28;20201;-63
2023/08/21 07:11:50;;;;;;;5.38;1.45;;;21.80;64.60;;;;;;5007754;28;20627;-61
2023/08/21 07:14:23;;;;;;;19.77;2.08;;;21.90;64.60;;;;;;4975826;28;20211;-65
2023/08/21 07:16:53;;;;;;;7.38;1.20;;;21.90;64.60;;;;;;5003655;28;20216;-58
2023/08/21 07:19:35;;;;;;;;;;;;;;;;;;;;;
2023/08/21 07:22:07;;;;;;;6.30;1.90;;;21.90;64.20;;;;;;4991775;28;20247;-57
2023/08/21 07:24:38;;;;;;;3.38;1.42;;;22.00;64.30;;;;;;5009033;28;20639;-57
2023/08/21 07:31:10;;;;;;;6.75;1.58;;;22.10;64.10;;;;;;5009650;28;20208;-58
2023/08/21 07:33:38;;;;;;;4.45;1.67;;;22.20;64.10;;;;;;4990816;28;20205;-58
2023/08/21 07:36:21;;;;;;;;;;;;;;;;;;;;;
2023/08/21 07:38:54;;;;;;;16.40;1.73;;;22.20;64.00;;;;;;5009703;28;20204;-59
2023/08/21 07:41:22;;;;;;;8.98;1.67;;;22.20;63.90;;;;;;4959603;28;20224;-58
2023/08/21 07:43:51;;;;;;;6.10;1.30;;;22.20;63.90;;;;;;5010454;28;20305;-60
2023/08/21 07:46:53;;;;;;;5.72;1.48;;;22.30;64.00;;;;;;4976106;28;20200;-58
2023/08/21 07:49:32;;;;;;;4.20;1.58;;;22.30;64.00;;;;;;4975880;28;20254;-58
2023/08/21 07:52:02;;;;;;;4.07;1.58;;;22.30;63.90;;;;;;5007885;28;20311;-61
2023/08/21 07:54:33;;;;;;;7.00;1.50;;;22.30;63.90;;;;;;5008086;28;20204;-60
2023/08/21 07:57:06;;;;;;;5.20;1.42;;;22.30;63.90;;;;;;4977351;28;20209;-61
2023/08/21 07:59:39;;;;;;;5.05;1.40;;;22.40;64.00;;;;;;5009138;28;20197;-60
2023/08/21 08:04:52;;;;;;;6.35;1.90;;;22.40;63.90;;;;;;4916316;29;20214;-60
2023/08/21 08:07:22;;;;;;;7.15;1.60;;;22.40;63.90;;;;;;4930492;29;20216;-61
2023/08/21 08:09:51;;;;;;;7.68;1.50;;;22.50;64.00;;;;;;4930120;29;20291;-59
2023/08/21 08:12:19;;;;;;;5.03;1.52;;;22.50;63.90;;;;;;4852922;29;20248;-61
2023/08/21 08:14:48;;;;;;;3.13;1.40;;;22.50;63.90;;;;;;4916438;29;20209;-58
2023/08/21 08:17:18;;;;;;;5.63;1.70;;;22.50;63.90;;;;;;4917913;29;20266;-57
2023/08/21 08:19:47;;;;;;;2.85;1.60;;;22.50;63.90;;;;;;4877695;29;20298;-60
2023/08/21 08:22:27;;;;;;;6.70;1.60;;;22.50;63.80;;;;;;4841456;29;20774;-62
2023/08/21 08:25:01;;;;;;;4.72;1.80;;;22.60;63.90;;;;;;4820869;29;20222;-63
2023/08/21 08:28:00;;;;;;;4.40;1.60;;;22.60;63.80;;;;;;4840957;29;20227;-62
2023/08/21 08:30:27;;;;;;;4.75;2.22;;;22.70;63.90;;;;;;4821589;29;20926;-62
2023/08/21 08:32:56;;;;;;;2.97;1.27;;;22.60;63.70;;;;;;4844127;29;20227;-63
2023/08/21 08:35:24;;;;;;;7.55;1.80;;;22.60;63.70;;;;;;4809968;29;20210;-61
2023/08/21 08:37:55;;;;;;;3.85;1.80;;;22.70;63.70;;;;;;4847850;29;20705;-61
2023/08/21 08:44:09;;;;;;;7.45;2.10;;;22.80;63.80;;;;;;4929079;29;20203;-62
2023/08/21 08:46:41;;;;;;;4.60;1.33;;;22.80;63.80;;;;;;4946129;28;20207;-62
2023/08/21 08:49:37;;;;;;;7.50;1.70;;;22.80;63.80;;;;;;4921371;28;20206;-63
2023/08/21 08:52:09;;;;;;;4.78;1.30;;;22.80;63.80;;;;;;4908846;29;20258;-59
2023/08/21 08:54:42;;;;;;;6.78;1.73;;;22.80;63.70;;;;;;4962899;28;20194;-62
2023/08/21 09:00:06;;;;;;;8.52;1.67;;;22.80;63.50;;;;;;4917898;28;20247;-61
2023/08/21 09:02:54;;;;;;;5.35;1.63;;;22.90;63.50;;;;;;4959127;28;20222;-62
2023/08/21 09:05:29;;;;;;;5.70;1.77;;;22.90;63.50;;;;;;4966570;28;21062;-62
2023/08/21 09:08:13;;;;;;;4.18;1.65;;;23.00;63.50;;;;;;4962554;28;20222;-64
2023/08/21 09:10:43;;;;;;;5.15;1.65;;;22.90;63.40;;;;;;4959654;28;20199;-62
2023/08/21 09:13:16;;;;;;;9.93;1.88;;;22.90;63.40;;;;;;4942216;28;20234;-62
2023/08/21 09:15:55;;;;;;;1.95;1.38;;;23.00;63.40;;;;;;4957332;28;20295;-62
2023/08/21 09:18:23;;;;;;;4.00;1.48;;;23.00;63.40;;;;;;4962704;28;20318;-62
2023/08/21 09:20:56;;;;;;;2.47;1.30;;;23.00;63.40;;;;;;4901465;28;20261;-60
2023/08/21 09:23:34;;;;;;;;;;;;;;;;;;;;;
2023/08/21 09:26:04;;;;;;;3.22;1.50;;;23.10;63.50;;;;;;4942436;28;20216;-61
2023/08/21 09:28:35;;;;;;;5.97;1.40;;;23.00;63.40;;;;;;4941276;28;20238;-60
2023/08/21 09:31:05;;;;;;;3.53;1.63;;;23.10;63.50;;;;;;4952652;28;20202;-63
2023/08/21 09:34:14;;;;;;;4.50;1.60;;;23.10;63.50;;;;;;4993495;28;20226;-64
2023/08/21 09:36:42;;;;;;;3.92;1.50;;;23.10;63.50;;;;;;4933051;29;20208;-63
2023/08/21 09:39:22;;;;;;;4.95;1.60;;;23.10;63.50;;;;;;4932530;29;20275;-63
2023/08/21 09:41:57;;;;;;;7.28;1.70;;;23.10;63.50;;;;;;4929011;29;20299;-63
2023/08/21 09:44:32;;;;;;;2.60;1.25;;;23.10;63.40;;;;;;4933159;29;20192;-62
2023/08/21 09:47:10;;;;;;;10.93;1.75;;;23.10;63.40;;;;;;4932329;29;20581;-62
2023/08/21 09:49:39;;;;;;;5.35;1.70;;;23.10;63.30;;;;;;4925816;29;20279;-61
2023/08/21 09:52:07;;;;;;;2.45;1.17;;;23.10;63.30;;;;;;4931257;29;20283;-60
2023/08/21 09:54:35;;;;;;;3.00;1.60;;;23.20;63.40;;;;;;4932734;29;20244;-61
2023/08/21 09:57:07;;;;;;;3.97;1.52;;;23.20;63.40;;;;;;4930509;29;20223;-62
2023/08/21 09:59:34;;;;;;;3.33;1.60;;;23.20;63.30;;;;;;4932204;29;20204;-62
2023/08/21 10:02:06;;;;;;;2.85;1.33;;;23.20;63.20;;;;;;4930642;29;20232;-62
2023/08/21 10:04:35;;;;;;;4.50;1.25;;;23.20;63.20;;;;;;4932031;29;20283;-62
2023/08/21 10:07:08;;;;;;;2.95;1.33;;;23.20;63.20;;;;;;4930607;29;20252;-62
2023/08/21 10:09:36;;;;;;;2.40;1.48;;;23.20;63.10;;;;;;4932470;29;20192;-60
2023/08/21 10:12:04;;;;;;;7.10;1.70;;;23.20;63.10;;;;;;4936663;29;20224;-63
2023/08/21 10:14:31;;;;;;;3.00;1.52;;;23.20;63.10;;;;;;5005224;28;20193;-62
2023/08/21 10:16:59;;;;;;;3.33;1.60;;;23.20;63.10;;;;;;5010085;28;20224;-63
2023/08/21 10:19:33;;;;;;;4.28;1.60;;;23.20;63.00;;;;;;5011394;28;20207;-62
2023/08/21 10:22:00;;;;;;;4.60;1.42;;;23.20;63.00;;;;;;5012303;28;20228;-63
2023/08/21 10:24:29;;;;;;;3.20;1.13;;;23.30;63.10;;;;;;5010833;28;20212;-62
2023/08/21 10:27:00;;;;;;;9.40;2.03;;;23.20;63.00;;;;;;5012300;28;20221;-63
2023/08/21 10:29:28;;;;;;;9.75;1.65;;;23.20;63.00;;;;;;5002944;28;20193;-62
2023/08/21 10:32:02;;;;;;;5.07;1.60;;;23.20;63.00;;;;;;5010322;28;20312;-60
2023/08/21 10:34:37;;;;;;;1.50;1.20;;;23.20;63.00;;;;;;5012335;28;20184;-63
2023/08/21 10:37:17;;;;;;;;;;;;;;;;;;;;;
2023/08/21 10:39:56;;;;;;;5.63;1.50;;;23.20;63.00;;;;;;5010745;28;20193;-61
2023/08/21 10:45:26;;;;;;;3.53;1.52;;;23.20;62.80;;;;;;4930155;29;20204;-63
2023/08/21 10:48:00;;;;;;;3.83;1.58;;;23.30;63.00;;;;;;4931538;29;20224;-61
2023/08/21 10:50:30;;;;;;;4.85;1.55;;;23.20;62.80;;;;;;5008063;28;20704;-61
2023/08/21 10:52:59;;;;;;;3.33;1.35;;;23.20;62.80;;;;;;4998544;28;20403;-61
2023/08/21 10:59:04;;;;;;;2.38;1.40;;;23.30;62.90;;;;;;5010825;28;20255;-63
2023/08/21 11:01:45;;;;;;;3.13;1.67;;;23.30;62.80;;;;;;5001056;28;20232;-64
2023/08/21 11:04:14;;;;;;;3.17;1.50;;;23.30;62.80;;;;;;5009806;28;20263;-62
2023/08/21 11:06:43;;;;;;;2.67;1.27;;;23.30;62.80;;;;;;5010543;28;20272;-63
2023/08/21 11:09:14;;;;;;;3.85;1.50;;;23.30;62.80;;;;;;5011238;28;20186;-63
2023/08/21 11:11:44;;;;;;;3.70;1.58;;;23.30;62.80;;;;;;5008933;28;20200;-61
2023/08/21 11:14:11;;;;;;;5.75;1.88;;;23.30;62.80;;;;;;5011061;28;20186;-63
2023/08/21 11:26:47;;;;;;;;;;;;;;;;;;;;;
2023/08/21 11:29:58;;;;;;;3.72;1.50;;;23.40;62.60;;;;;;4899732;29;20287;-63
2023/08/21 11:32:40;;;;;;;4.32;1.70;;;23.40;62.60;;;;;;4943892;29;20289;-62
2023/08/21 11:45:03;;;;;;;4.18;2.15;;;23.40;62.60;;;;;;4950296;29;20191;-62
2023/08/21 11:47:52;;;;;;;3.30;1.45;;;23.40;63.40;;;;;;4945925;29;20315;-61
2023/08/21 11:50:19;;;;;;;5.18;1.40;;;23.40;62.50;;;;;;4946325;29;20259;-62
2023/08/21 11:52:47;;;;;;;7.55;1.73;;;23.40;62.50;;;;;;4947597;29;20280;-63
2023/08/21 11:55:28;;;;;;;;;;;;;;;;;;;;;
2023/08/21 12:09:05;;;;;;;3.70;1.80;;;23.50;62.50;;;;;;5009982;28;20746;-63
2023/08/21 12:11:35;;;;;;;6.85;1.73;;;23.50;62.50;;;;;;5005127;28;20195;-62
2023/08/21 12:14:02;;;;;;;5.80;1.60;;;23.50;62.50;;;;;;5006157;28;20304;-63
2023/08/21 12:16:32;;;;;;;4.10;1.30;;;23.50;62.50;;;;;;5005691;28;20236;-62
2023/08/21 12:19:00;;;;;;;4.72;1.70;;;23.40;62.50;;;;;;5013308;28;20212;-62
2023/08/21 12:21:28;;;;;;;2.97;1.60;;;23.50;62.60;;;;;;5012752;28;20219;-61
2023/08/21 12:23:55;;;;;;;4.63;1.60;;;23.50;62.50;;;;;;5012193;28;20220;-63
2023/08/21 12:29:36;;;;;;;6.05;1.70;;;23.50;62.50;;;;;;5014786;28;20415;-62
2023/08/21 12:32:03;;;;;;;3.92;1.60;;;23.50;62.50;;;;;;5010794;28;20220;-60
2023/08/21 12:34:31;;;;;;;2.67;1.40;;;23.50;62.60;;;;;;5014748;28;20224;-63
2023/08/21 12:36:58;;;;;;;2.20;1.45;;;23.50;62.70;;;;;;5009417;28;20205;-62
2023/08/21 12:39:29;;;;;;;4.15;1.52;;;23.50;62.70;;;;;;5013402;28;20220;-63
2023/08/21 12:41:57;;;;;;;7.10;1.60;;;23.60;62.80;;;;;;5008811;28;20213;-61
2023/08/21 12:48:25;;;;;;;4.38;1.50;;;23.60;62.90;;;;;;5015698;28;20215;-63
2023/08/21 12:50:52;;;;;;;4.28;1.50;;;23.60;62.90;;;;;;5007323;28;20204;-61
2023/08/21 12:53:20;;;;;;;5.07;1.55;;;23.60;62.90;;;;;;5015402;28;20299;-63
2023/08/21 12:55:49;;;;;;;3.38;1.67;;;23.60;62.90;;;;;;5009531;28;20802;-63
2023/08/21 12:58:19;;;;;;;8.63;1.60;;;23.60;62.90;;;;;;5012292;28;20221;-63
2023/08/21 13:00:47;;;;;;;5.68;1.80;;;23.60;62.80;;;;;;5014679;28;20197;-61
2023/08/21 13:03:17;;;;;;;8.52;1.98;;;23.60;62.90;;;;;;5009835;28;20228;-63
2023/08/21 13:11:52;;;;;;;4.13;1.45;;;23.60;63.10;;;;;;5011266;28;20240;-62
2023/08/21 13:14:20;;;;;;;4.13;1.50;;;23.60;63.10;;;;;;5013291;28;20189;-63
2023/08/21 13:20:25;;;;;;;3.75;1.80;;;23.60;63.10;;;;;;5000045;28;20285;-62
2023/08/21 13:23:22;;;;;;;8.10;2.03;;;23.60;63.20;;;;;;5012114;28;20229;-59
2023/08/21 13:25:52;;;;;;;8.50;1.80;;;23.60;63.60;;;;;;5007482;28;20726;-61
2023/08/21 13:42:01;;;;;;;3.92;1.52;;;23.70;63.50;;;;;;4842324;29;20234;-63
2023/08/21 13:44:29;;;;;;;3.85;1.65;;;23.60;63.40;;;;;;4928382;29;20196;-63
2023/08/21 13:47:02;;;;;;;5.38;1.80;;;23.70;63.40;;;;;;4921720;29;20236;-62
2023/08/21 13:52:21;;;;;;;7.57;1.98;;;23.60;63.20;;;;;;4862670;29;20215;-61
2023/08/21 13:54:48;;;;;;;3.10;2.00;;;23.60;63.30;;;;;;4919980;29;20263;-60
2023/08/21 13:57:32;;;;;;;3.35;1.60;;;23.70;63.40;;;;;;4929472;29;20287;-62
2023/08/21 14:00:00;;;;;;;2.63;1.60;;;23.70;63.30;;;;;;4925964;29;20200;-60
2023/08/21 14:02:28;;;;;;;6.13;1.75;;;23.70;63.20;;;;;;4929068;29;20236;-62
2023/08/21 14:05:07;;;;;;;2.78;1.40;;;23.70;63.20;;;;;;4927464;29;20197;-61
2023/08/21 14:07:51;;;;;;;7.28;1.77;;;23.60;63.00;;;;;;4936662;28;20703;-60
2023/08/21 14:13:22;;;;;;;5.65;1.85;;;23.60;62.90;;;;;;4944736;29;20305;-62
2023/08/21 14:15:49;;;;;;;5.10;1.95;;;23.70;62.90;;;;;;4939788;29;20214;-61
2023/08/21 14:18:17;;;;;;;5.35;1.70;;;23.70;62.80;;;;;;4948562;29;20728;-61
2023/08/21 14:20:44;;;;;;;6.32;1.52;;;23.70;62.80;;;;;;4944721;29;20211;-63
2023/08/21 14:23:24;;;;;;;5.70;1.50;;;23.70;62.70;;;;;;4942458;29;20239;-63
2023/08/21 14:25:52;;;;;;;6.25;1.90;;;23.70;62.70;;;;;;4943718;29;20232;-63
2023/08/21 14:34:52;;;;;;;8.30;1.70;;;23.70;62.60;;;;;;4896058;29;20213;-61
2023/08/21 14:37:39;;;;;;;9.38;1.75;;;23.70;62.50;;;;;;4935793;29;20199;-64
2023/08/21 14:40:18;;;;;;;9.85;2.00;;;23.70;62.50;;;;;;4947102;29;20270;-61